»·PEaware :: N89455 KSAN-KLAX

N89455 :: KSAN-KLAX

FLIGHT INFORMATION

Flight Status: Arrived
Operator: Privately registered:
United States
More flights under this callsign
Pilot: Dretana A. (25430)
Aircraft: CESSNA 206 STATIONAIR
(C206)
More flights by this aircraft type
Origin: KSAN San Diego Intl-Lindbergh
United States
Destination: KLAX Los Angeles Intl
United States
More flights between these airports :: More routes between these airports
Route: OCN V23 SLI
File this flight plan on PilotEdge
Remarks:
Altitude:
(Current/Filed)
6,000ft
Speed:
(Current/Filed)
180kts
Departed: 06-Dec-19 05:10 PM
Arrived: 06-Dec-19 05:43 PM
Distance/Time
Traveled:
94nm/0:33
Distance/Time
To Go:
Arrived

Flight Plot

Page will automatically refresh every two minutes.


Map Options




Map Legend


Flown Route
Filed Route
Departure Airport
Arrival Airport
Navaid (VOR, NDB)
Fix

Horizontal Profiles

Position Reports

Time Latitude Longitude Heading Altitude Ground
Speed
06-Dec-19 16:34 32.733345 -117.181747 15 18ft 0kts
06-Dec-19 16:35 32.733345 -117.181747 15 18ft 0kts
06-Dec-19 16:36 32.733345 -117.181747 15 18ft 0kts
06-Dec-19 16:37 32.733345 -117.181747 15 18ft 0kts
06-Dec-19 16:38 32.733345 -117.181747 15 18ft 0kts
06-Dec-19 16:39 32.733345 -117.181747 15 18ft 0kts
06-Dec-19 16:42 32.733345 -117.181747 15 18ft 0kts
06-Dec-19 16:43 32.733345 -117.181747 15 18ft 0kts
06-Dec-19 16:44 32.733345 -117.181747 15 18ft 0kts
06-Dec-19 16:45 32.733345 -117.181747 15 18ft 0kts
06-Dec-19 16:46 32.733345 -117.181747 15 18ft 0kts
06-Dec-19 16:47 32.733345 -117.181747 15 18ft 0kts
06-Dec-19 16:48 32.733345 -117.181747 15 18ft 0kts
06-Dec-19 16:49 32.733345 -117.181747 15 18ft 0kts
06-Dec-19 16:50 32.733345 -117.181747 15 18ft 0kts
06-Dec-19 16:51 32.733345 -117.181747 15 18ft 0kts
06-Dec-19 16:52 32.733345 -117.181747 15 18ft 0kts
06-Dec-19 16:53 32.733345 -117.181747 15 18ft 0kts
06-Dec-19 16:54 32.733345 -117.181747 15 18ft 0kts
06-Dec-19 16:55 32.733346 -117.181747 15 18ft 0kts
06-Dec-19 16:56 32.733346 -117.181747 15 18ft 0kts
06-Dec-19 16:57 32.733346 -117.181747 15 18ft 0kts
06-Dec-19 16:58 32.733346 -117.181747 15 18ft 0kts
06-Dec-19 16:59 32.733346 -117.181747 15 18ft 0kts
06-Dec-19 17:00 32.732477 -117.181256 108 18ft 22kts
06-Dec-19 17:01 32.731159 -117.175971 111 18ft 12kts
06-Dec-19 17:03 32.730888 -117.175537 117 18ft 0kts
06-Dec-19 17:04 32.730888 -117.175537 117 18ft 0kts
06-Dec-19 17:05 32.730886 -117.175533 117 18ft 0kts
06-Dec-19 17:06 32.730884 -117.175528 117 18ft 0kts
06-Dec-19 17:07 32.730876 -117.175503 105 18ft 3kts
06-Dec-19 17:08 32.730679 -117.175150 187 18ft 0kts
06-Dec-19 17:09 32.730266 -117.176074 289 18ft 15kts
06-Dec-19 17:10 32.738481 -117.209433 286 475ft 151kts
06-Dec-19 17:11 32.765523 -117.249445 321 1320ft 161kts
06-Dec-19 17:12 32.802173 -117.283517 321 1924ft 165kts
06-Dec-19 17:13 32.840125 -117.312461 331 2702ft 166kts
06-Dec-19 17:14 32.886881 -117.313514 354 3291ft 166kts
06-Dec-19 17:15 32.933478 -117.331061 348 3922ft 178kts
06-Dec-19 17:16 32.982721 -117.345554 350 4473ft 176kts
06-Dec-19 17:17 33.029877 -117.358645 351 5298ft 166kts
06-Dec-19 17:18 33.074627 -117.370781 350 5993ft 174kts
06-Dec-19 17:19 33.125138 -117.384996 349 5992ft 193kts
06-Dec-19 17:19 33.169228 -117.397491 349 5991ft 197kts
06-Dec-19 17:21 33.231775 -117.415311 348 5990ft 198kts
06-Dec-19 17:22 33.274446 -117.457210 315 5991ft 201kts
06-Dec-19 17:22 33.307971 -117.496273 315 5990ft 201kts
06-Dec-19 17:23 33.348047 -117.543018 315 5990ft 201kts
06-Dec-19 17:25 33.394953 -117.597797 315 5990ft 201kts
06-Dec-19 17:25 33.428226 -117.636709 315 6000ft 201kts
06-Dec-19 17:26 33.468319 -117.683655 315 6000ft 201kts
06-Dec-19 17:27 33.508913 -117.731279 315 5979ft 196kts
06-Dec-19 17:28 33.548352 -117.777646 315 6000ft 200kts
06-Dec-19 17:29 33.588322 -117.824641 315 6000ft 201kts
06-Dec-19 17:30 33.628415 -117.871856 315 6000ft 201kts
06-Dec-19 17:31 33.668434 -117.919055 315 5999ft 201kts
06-Dec-19 17:32 33.708452 -117.966322 315 5700ft 199kts
06-Dec-19 17:33 33.747267 -118.012229 315 4898ft 193kts
06-Dec-19 17:34 33.785551 -118.057567 315 4132ft 191kts
06-Dec-19 17:35 33.822632 -118.101546 315 3990ft 186kts
06-Dec-19 17:36 33.853509 -118.151661 295 3439ft 194kts
06-Dec-19 17:37 33.890356 -118.196129 320 2956ft 179kts
06-Dec-19 17:38 33.918241 -118.246212 300 1803ft 192kts
06-Dec-19 17:39 33.943089 -118.294165 292 1698ft 165kts
06-Dec-19 17:40 33.942007 -118.340336 262 985ft 136kts
06-Dec-19 17:41 33.937584 -118.383164 261 181ft 108kts
06-Dec-19 17:42 33.935190 -118.401812 224 129ft 15kts
06-Dec-19 17:43 33.934475 -118.402669 226 129ft 20kts
06-Dec-19 17:44 33.933088 -118.400923 173 129ft 0kts
06-Dec-19 17:45 33.933088 -118.400923 173 129ft 0kts
06-Dec-19 17:46 33.933088 -118.400923 173 129ft 0kts

Navigation Log

Ident Type
Flight plan parsing failed, navigation log unavailable